createdAt,value
2023-03-13T00:00:07.378Z,4.10
2023-03-13T00:02:43.075Z,2.50
2023-03-13T00:05:21.121Z,2.63
2023-03-13T00:07:56.182Z,3.17
2023-03-13T00:10:31.826Z,3.40
2023-03-13T00:13:07.242Z,2.80
2023-03-13T00:15:42.365Z,2.85
2023-03-13T00:18:17.310Z,3.22
2023-03-13T00:21:00.991Z,2.50
2023-03-13T00:23:37.157Z,2.58
2023-03-13T00:26:13.021Z,2.00
2023-03-13T00:28:48.047Z,2.03
2023-03-13T00:31:22.502Z,2.77
2023-03-13T00:33:58.780Z,2.78
2023-03-13T00:36:37.315Z,2.08
2023-03-13T00:39:12.076Z,2.37
2023-03-13T00:41:48.109Z,2.47
2023-03-13T00:44:23.633Z,2.40
2023-03-13T00:47:01.700Z,2.08
2023-03-13T00:49:37.337Z,2.08
2023-03-13T00:52:15.045Z,2.10
2023-03-13T00:54:50.344Z,2.15
2023-03-13T00:57:28.269Z,1.93
2023-03-13T01:00:06.338Z,2.00
2023-03-13T01:02:45.953Z,2.30
2023-03-13T01:05:22.968Z,2.30
2023-03-13T01:08:03.296Z,2.15
2023-03-13T01:10:38.202Z,2.38
2023-03-13T01:13:13.493Z,2.67
2023-03-13T01:15:48.794Z,2.63
2023-03-13T01:18:24.695Z,2.92
2023-03-13T01:21:01.622Z,2.08
2023-03-13T01:26:15.731Z,2.42
2023-03-13T01:31:27.772Z,2.55
2023-03-13T01:34:03.449Z,3.17
2023-03-13T01:36:39.738Z,2.50
2023-03-13T01:39:18.186Z,2.97
2023-03-13T01:41:53.890Z,2.70
2023-03-13T01:44:30.309Z,3.03
2023-03-13T01:49:44.760Z,2.20
2023-03-13T01:52:30.707Z,2.83
2023-03-13T01:58:02.472Z,2.40
2023-03-13T02:00:39.510Z,3.00
2023-03-13T02:03:18.249Z,3.15
2023-03-13T02:05:53.038Z,3.53
2023-03-13T02:08:28.684Z,3.05
2023-03-13T02:11:12.998Z,2.72
2023-03-13T02:13:50.409Z,3.72
2023-03-13T02:16:26.219Z,3.13
2023-03-13T02:19:01.587Z,3.60
2023-03-13T02:21:40.371Z,3.80
2023-03-13T02:24:19.268Z,4.30
2023-03-13T02:26:56.619Z,3.80
2023-03-13T02:29:32.689Z,3.88
2023-03-13T02:32:08.583Z,4.28
2023-03-13T02:34:43.559Z,4.68
2023-03-13T02:37:18.509Z,4.18
2023-03-13T02:39:53.181Z,5.32
2023-03-13T02:45:11.562Z,5.70
2023-03-13T02:47:48.375Z,5.65
2023-03-13T02:50:23.153Z,5.90
2023-03-13T02:52:59.841Z,6.63
2023-03-13T02:55:36.162Z,5.95
2023-03-13T02:58:14.215Z,5.95
2023-03-13T03:00:50.382Z,6.55
2023-03-13T03:03:26.103Z,7.00
2023-03-13T03:06:01.002Z,8.20
2023-03-13T03:08:35.906Z,7.50
2023-03-13T03:11:14.234Z,7.20
2023-03-13T03:13:53.905Z,6.80
2023-03-13T03:16:32.374Z,6.65
2023-03-13T03:19:08.027Z,6.43
2023-03-13T03:21:45.372Z,6.85
2023-03-13T03:24:17.931Z,7.10
2023-03-13T03:26:53.245Z,7.80
2023-03-13T03:29:38.952Z,8.25
2023-03-13T03:32:13.896Z,8.70
2023-03-13T03:34:49.164Z,8.18
2023-03-13T03:37:26.570Z,9.02
2023-03-13T03:40:02.827Z,9.87
2023-03-13T03:42:39.386Z,9.23
2023-03-13T03:45:17.759Z,9.55
2023-03-13T03:47:53.836Z,9.40
2023-03-13T03:53:08.208Z,11.00
2023-03-13T03:55:41.920Z,10.13
2023-03-13T03:58:17.144Z,10.15
2023-03-13T04:01:21.021Z,10.52
2023-03-13T04:03:56.311Z,9.88
2023-03-13T04:06:30.660Z,10.05
2023-03-13T04:09:05.091Z,9.35
2023-03-13T04:11:41.313Z,10.25
2023-03-13T04:14:17.875Z,10.90
2023-03-13T04:16:57.060Z,11.30
2023-03-13T04:19:34.152Z,9.45
2023-03-13T04:22:09.411Z,11.50
2023-03-13T04:24:46.870Z,10.00
2023-03-13T04:27:23.599Z,8.70
2023-03-13T04:30:00.750Z,9.20
2023-03-13T04:32:53.498Z,9.40
2023-03-13T04:35:40.695Z,9.93
2023-03-13T04:38:34.347Z,8.88
2023-03-13T04:41:22.698Z,8.90
2023-03-13T04:44:36.341Z,9.57
2023-03-13T04:47:18.563Z,10.48
2023-03-13T04:50:19.596Z,8.93
2023-03-13T04:53:11.949Z,9.70
2023-03-13T04:56:16.203Z,8.80
2023-03-13T04:59:11.194Z,9.00
2023-03-13T05:02:07.069Z,9.27
2023-03-13T05:04:52.302Z,8.77
2023-03-13T05:07:38.195Z,9.13
2023-03-13T05:10:31.349Z,8.63
2023-03-13T05:13:26.809Z,9.10
2023-03-13T05:16:34.943Z,9.65
2023-03-13T05:19:35.330Z,9.32
2023-03-13T05:22:51.635Z,8.70
2023-03-13T05:25:52.281Z,7.97
2023-03-13T05:29:08.244Z,8.07
2023-03-13T05:35:18.186Z,10.32
2023-03-13T05:38:26.670Z,9.50
2023-03-13T05:41:29.789Z,10.00
2023-03-13T05:44:28.757Z,10.50
2023-03-13T05:50:37.334Z,11.10
2023-03-13T05:58:03.089Z,8.90
2023-03-13T06:01:23.104Z,10.00
2023-03-13T06:11:27.441Z,10.13
2023-03-13T06:20:24.834Z,10.20
2023-03-13T06:23:48.098Z,9.50
2023-03-13T06:39:55.740Z,9.05
2023-03-13T06:49:40.538Z,10.07
2023-03-13T06:58:35.940Z,9.57
2023-03-13T07:01:14.829Z,8.85
2023-03-13T07:03:51.940Z,8.57
2023-03-13T07:06:31.484Z,8.07
2023-03-13T07:09:17.753Z,8.20
2023-03-13T07:11:54.754Z,7.45
2023-03-13T07:14:48.013Z,7.57
2023-03-13T07:17:43.376Z,8.07
2023-03-13T07:20:30.687Z,6.63
2023-03-13T07:23:12.266Z,7.18
2023-03-13T07:25:45.804Z,7.43
2023-03-13T07:28:31.372Z,7.35
2023-03-13T07:31:19.221Z,6.82
2023-03-13T07:34:15.280Z,6.07
2023-03-13T07:36:54.271Z,6.83
2023-03-13T07:46:27.557Z,6.18
2023-03-13T07:49:22.728Z,6.13
2023-03-13T07:55:57.673Z,5.07
2023-03-13T07:59:19.876Z,5.53
2023-03-13T08:03:04.067Z,4.80
2023-03-13T08:06:09.868Z,4.95
2023-03-13T08:09:22.146Z,4.97
2023-03-13T08:12:31.210Z,5.85
2023-03-13T08:15:35.820Z,4.85
2023-03-13T08:18:50.466Z,5.00
2023-03-13T08:22:24.408Z,4.05
2023-03-13T08:25:47.291Z,4.20
2023-03-13T08:35:27.389Z,5.07
2023-03-13T08:41:10.495Z,5.65
2023-03-13T08:44:00.980Z,6.70
2023-03-13T08:46:54.417Z,4.70
2023-03-13T08:50:00.815Z,4.38
2023-03-13T08:53:10.000Z,4.45
2023-03-13T08:56:20.030Z,4.30
2023-03-13T08:58:58.592Z,4.20
2023-03-13T09:01:39.176Z,3.40
2023-03-13T09:04:36.074Z,3.90
2023-03-13T09:10:11.336Z,3.42
2023-03-13T09:13:03.510Z,3.15
2023-03-13T09:15:49.052Z,4.65
2023-03-13T09:18:37.169Z,3.80
2023-03-13T09:21:21.174Z,4.05
2023-03-13T09:24:12.553Z,3.97
2023-03-13T09:29:56.223Z,2.78
2023-03-13T11:00:08.606Z,4.90
2023-03-13T11:02:48.742Z,4.05
2023-03-13T11:05:50.613Z,3.97
2023-03-13T11:08:40.434Z,3.95
2023-03-13T11:15:03.446Z,3.45
2023-03-13T11:37:40.670Z,3.50
2023-03-13T13:13:42.263Z,0.88
2023-03-13T13:23:40.144Z,1.90
2023-03-13T13:26:26.295Z,1.30
2023-03-13T13:32:31.682Z,1.83
2023-03-13T13:42:00.529Z,1.70
2023-03-13T13:56:22.498Z,1.67
2023-03-13T14:00:25.410Z,2.25
2023-03-13T14:09:53.888Z,2.47
2023-03-13T14:29:27.348Z,2.45
2023-03-13T14:32:06.624Z,2.80
2023-03-13T14:34:51.898Z,2.10
2023-03-13T14:46:50.233Z,2.25
2023-03-13T14:49:44.671Z,2.00
2023-03-13T14:52:54.928Z,1.67
2023-03-13T16:49:27.192Z,2.08
2023-03-13T16:52:12.376Z,3.55
2023-03-13T16:54:54.694Z,2.50
2023-03-13T16:57:39.208Z,1.95
2023-03-13T17:00:40.205Z,1.77
2023-03-13T17:07:01.858Z,1.70
2023-03-13T17:10:35.241Z,2.00
2023-03-13T17:13:53.791Z,1.80
2023-03-13T17:16:55.887Z,1.70
2023-03-13T17:19:47.801Z,2.08
2023-03-13T17:22:30.498Z,2.00
2023-03-13T17:25:09.972Z,2.03
2023-03-13T17:28:22.271Z,1.80
2023-03-13T17:34:56.205Z,2.20
2023-03-13T17:37:56.251Z,1.95
2023-03-13T17:50:53.942Z,2.70
2023-03-13T17:57:06.701Z,2.10
2023-03-13T18:08:42.615Z,2.80
2023-03-13T18:11:45.640Z,3.60
2023-03-13T18:14:18.431Z,4.00
2023-03-13T18:16:57.859Z,3.08
2023-03-13T18:19:34.460Z,2.60
2023-03-13T18:22:15.519Z,2.55
2023-03-13T18:24:53.198Z,2.47
2023-03-13T18:27:33.917Z,2.50
2023-03-13T18:30:18.200Z,2.67
2023-03-13T18:33:07.562Z,3.10
2023-03-13T18:35:45.497Z,2.72
2023-03-13T18:38:29.665Z,2.67
2023-03-13T18:41:10.975Z,2.45
2023-03-13T18:43:48.756Z,3.30
2023-03-13T18:46:46.346Z,4.63
2023-03-13T18:52:32.589Z,5.18
2023-03-13T18:58:25.592Z,3.80
2023-03-13T19:03:55.476Z,4.18
2023-03-13T19:06:40.631Z,3.90
2023-03-13T19:09:47.162Z,3.78
2023-03-13T19:12:46.969Z,3.60
2023-03-13T19:15:37.802Z,3.47
2023-03-13T19:46:02.042Z,2.78
2023-03-13T19:49:25.389Z,2.72
2023-03-13T19:55:19.454Z,3.03
2023-03-13T19:58:09.360Z,3.03
2023-03-13T20:01:21.289Z,2.60
2023-03-13T20:07:18.968Z,3.10
2023-03-13T20:10:26.097Z,2.70
2023-03-13T20:13:13.661Z,2.90
2023-03-13T20:16:09.786Z,3.42
2023-03-13T20:18:55.521Z,3.90
2023-03-13T20:24:39.510Z,3.20
2023-03-13T20:34:15.656Z,3.55
2023-03-13T20:46:44.630Z,2.60
2023-03-13T20:49:58.319Z,3.15
2023-03-13T20:52:40.807Z,2.38
2023-03-13T20:59:21.392Z,3.35
2023-03-13T21:06:28.339Z,2.90
2023-03-13T21:15:01.000Z,2.63
2023-03-13T21:27:06.206Z,2.97
2023-03-13T21:39:44.570Z,3.50
2023-03-13T21:42:47.817Z,2.80
2023-03-13T21:45:37.580Z,3.05
2023-03-13T21:51:20.739Z,3.22
2023-03-13T21:54:05.264Z,2.70
2023-03-13T21:57:19.592Z,3.22
2023-03-13T22:00:15.107Z,2.93
2023-03-13T22:02:55.844Z,2.85
2023-03-13T22:05:43.400Z,2.90
2023-03-13T22:08:18.886Z,3.42
2023-03-13T22:14:11.352Z,3.40
2023-03-13T22:17:09.215Z,4.30
2023-03-13T22:19:58.558Z,3.20
2023-03-13T22:22:56.627Z,3.60
2023-03-13T22:26:24.179Z,3.45
2023-03-13T22:29:17.581Z,3.40
2023-03-13T22:31:57.882Z,3.35
2023-03-13T22:50:29.393Z,3.05
2023-03-13T22:53:16.304Z,3.60
2023-03-13T22:59:21.286Z,3.58
2023-03-13T23:05:38.209Z,3.17
2023-03-13T23:08:49.776Z,3.00
2023-03-13T23:11:42.263Z,3.10
2023-03-13T23:14:44.820Z,3.55
2023-03-13T23:17:26.108Z,3.83
2023-03-13T23:20:12.827Z,3.35
2023-03-13T23:23:01.735Z,3.45
2023-03-13T23:26:18.769Z,2.70
2023-03-13T23:32:30.003Z,3.25
